VTUU/UBP METAR and TAF weather

Enter ICAO airport designator
Station Type Date Time Source
VTUU METAR 2021/04/13 08:00 UTC NOAA

VTUU 130800Z VRB05KT 9000 SCT030 37/22 Q1008 NOSIG


Station Type Date Time Source
VTUU Decoded METAR 2021/04/13 08:00 UTC NOAA

Ubon Ratchathani, Thailand (VTUU) 15-15N 104-52E 127M
Apr 13, 2021 - 04:00 AM EDT / 2021.04.13 0800 UTC
Wind: Variable at 6 MPH (5 KT):0
Visibility: 5 mile(s):0
Sky conditions: partly cloudy
Temperature: 98 F (37 C)
Heat index: 106.3 F (41.3 C):1
Dew Point: 71 F (22 C)
Relative Humidity: 42%
Pressure (altimeter): 29.77 in. Hg (1008 hPa)
ob: VTUU 130800Z VRB05KT 9000 SCT030 37/22 Q1008 NOSIG
cycle: 8

Station Type Date Time Source
VTUU TAF 2021/04/13 06:37 UTC NOAA

TAF VTUU 130500Z 1306/1406 21005KT 9000 FEW035
TEMPO 1309/1312 VRB15KT 4500 TSRA FEW018CB

Example: see airport list